White Lake, New York
Current Conditions -  °F | °C
As of 6:15 AM on Friday 24 Oct 2014 (Local Time) from KMSV Reporting Station
Overcast Overcast  
Wind Chill: 35°   Ceiling: 1000
Heat Index: 43°   Visibility: 10mi
Dew Point: 43°   Wind: 16mph
Humidity: 100%   Direction: 320°NW
Pressure: 29.83"   Gusts: 23mph
Location:  41.68°N, 74.83°W
Report Text: KMSV 241015Z AUTO 32014G20KT 10SM OVC010 06/06 A2983 RMK AO1
Loading
Personal Weather Stations






























Interactive Weather Map
Tropical Storm Tracking
New forecast layout! Learn more

10-Day Weather Forecast

Advertisements
Track Severe Weather on mobile